createdAt,value
2023-03-06T00:01:22.924Z,2.59
2023-03-06T00:06:27.032Z,2.56
2023-03-06T00:11:30.285Z,2.55
2023-03-06T00:16:33.567Z,2.56
2023-03-06T00:21:36.953Z,2.56
2023-03-06T00:26:41.507Z,2.57
2023-03-06T00:31:48.232Z,2.57
2023-03-06T00:36:51.651Z,2.61
2023-03-06T00:41:55.847Z,2.69
2023-03-06T00:47:01.383Z,2.68
2023-03-06T00:52:05.499Z,2.70
2023-03-06T00:57:09.437Z,2.64
2023-03-06T01:02:13.386Z,2.59
2023-03-06T01:07:16.741Z,2.55
2023-03-06T01:12:22.799Z,2.55
2023-03-06T01:17:27.426Z,2.63
2023-03-06T01:22:31.149Z,2.70
2023-03-06T01:27:36.118Z,2.73
2023-03-06T01:32:39.870Z,2.71
2023-03-06T01:37:43.596Z,2.72
2023-03-06T01:42:49.653Z,2.72
2023-03-06T01:47:52.902Z,2.73
2023-03-06T01:52:59.666Z,2.70
2023-03-06T01:58:14.652Z,2.63
2023-03-06T02:03:25.093Z,2.57
2023-03-06T02:08:30.034Z,2.53
2023-03-06T02:13:33.641Z,2.46
2023-03-06T02:18:38.372Z,2.47
2023-03-06T02:24:17.205Z,2.48
2023-03-06T02:29:25.082Z,2.51
2023-03-06T02:34:28.438Z,2.56
2023-03-06T02:39:34.742Z,2.63
2023-03-06T02:44:38.685Z,2.69
2023-03-06T02:49:41.920Z,2.78
2023-03-06T02:54:45.304Z,2.84
2023-03-06T02:59:48.581Z,2.76
2023-03-06T03:04:52.641Z,2.67
2023-03-06T03:09:56.390Z,2.60
2023-03-06T03:15:00.168Z,2.51
2023-03-06T03:20:07.941Z,2.44
2023-03-06T03:25:11.630Z,2.37
2023-03-06T03:30:15.748Z,2.29
2023-03-06T03:35:19.405Z,2.27
2023-03-06T03:40:23.499Z,2.28
2023-03-06T03:45:27.463Z,2.26
2023-03-06T03:50:31.035Z,2.27
2023-03-06T03:55:34.346Z,2.25
2023-03-06T04:00:37.838Z,2.30
2023-03-06T04:05:45.393Z,2.36
2023-03-06T04:10:51.516Z,2.44
2023-03-06T04:15:55.921Z,2.56
2023-03-06T04:20:59.801Z,2.71
2023-03-06T04:26:04.427Z,2.82
2023-03-06T04:31:07.770Z,2.82
2023-03-06T04:36:31.316Z,2.78
2023-03-06T04:41:37.954Z,2.79
2023-03-06T04:46:41.527Z,2.71
2023-03-06T04:51:44.783Z,2.68
2023-03-06T04:56:47.930Z,2.69
2023-03-06T05:01:51.196Z,2.74
2023-03-06T05:06:54.938Z,2.77
2023-03-06T05:11:58.940Z,2.74
2023-03-06T05:17:02.530Z,2.74
2023-03-06T05:22:05.949Z,2.77
2023-03-06T05:27:09.216Z,2.85
2023-03-06T05:32:12.805Z,2.93
2023-03-06T05:37:17.164Z,3.02
2023-03-06T05:42:20.893Z,3.14
2023-03-06T05:47:24.377Z,3.18
2023-03-06T05:52:27.620Z,3.15
2023-03-06T05:57:30.831Z,3.20
2023-03-06T06:02:34.011Z,3.13
2023-03-06T06:07:37.569Z,3.09
2023-03-06T06:12:41.092Z,3.06
2023-03-06T06:17:44.261Z,3.06
2023-03-06T06:22:47.390Z,3.16
2023-03-06T06:27:50.770Z,3.21
2023-03-06T06:32:54.094Z,3.23
2023-03-06T06:37:57.289Z,3.28
2023-03-06T06:43:00.710Z,3.39
2023-03-06T06:48:04.623Z,3.49
2023-03-06T06:53:07.794Z,3.56
2023-03-06T06:58:11.255Z,3.74
2023-03-06T07:03:15.063Z,3.97
2023-03-06T07:08:18.518Z,4.11
2023-03-06T07:13:22.044Z,4.21
2023-03-06T07:18:25.300Z,4.29
2023-03-06T07:23:28.690Z,4.29
2023-03-06T07:28:46.208Z,4.27
2023-03-06T07:33:55.638Z,4.27
2023-03-06T07:38:58.891Z,4.32
2023-03-06T07:44:02.771Z,4.44
2023-03-06T07:49:06.519Z,4.55
2023-03-06T07:54:10.225Z,4.61
2023-03-06T07:59:13.609Z,4.65
2023-03-06T08:04:17.627Z,4.75
2023-03-06T08:09:21.243Z,4.87
2023-03-06T08:14:24.594Z,4.91
2023-03-06T08:19:27.735Z,4.98
2023-03-06T08:24:31.299Z,5.09
2023-03-06T08:29:35.272Z,5.10
2023-03-06T08:34:40.149Z,5.18
2023-03-06T08:39:43.540Z,5.27
2023-03-06T08:44:47.035Z,5.33
2023-03-06T08:49:50.835Z,5.37
2023-03-06T08:54:54.266Z,5.46
2023-03-06T08:59:58.073Z,5.59
2023-03-06T09:05:01.593Z,5.67
2023-03-06T09:10:05.275Z,5.80
2023-03-06T09:15:09.529Z,5.90
2023-03-06T09:20:13.604Z,6.05
2023-03-06T09:25:20.626Z,6.27
2023-03-06T09:30:24.091Z,6.38
2023-03-06T09:35:27.328Z,6.39
2023-03-06T09:41:02.858Z,6.37
2023-03-06T09:46:43.010Z,6.48
2023-03-06T09:52:00.931Z,6.45
2023-03-06T09:57:14.672Z,6.46
2023-03-06T10:02:28.944Z,6.55
2023-03-06T10:08:02.616Z,6.62
2023-03-06T10:13:17.138Z,6.66
2023-03-06T10:18:20.820Z,6.77
2023-03-06T10:23:33.593Z,6.78
2023-03-06T10:28:55.410Z,6.97
2023-03-06T10:34:17.330Z,7.06
2023-03-06T10:39:22.880Z,7.11
2023-03-06T10:44:26.143Z,7.44
2023-03-06T10:49:34.910Z,7.85
2023-03-06T10:54:50.905Z,8.11
2023-03-06T11:00:01.227Z,8.28
2023-03-06T11:05:06.716Z,8.41
2023-03-06T11:10:19.338Z,8.39
2023-03-06T11:15:23.655Z,8.38
2023-03-06T11:20:48.615Z,8.38
2023-03-06T11:26:23.039Z,8.47
2023-03-06T11:31:32.652Z,8.65
2023-03-06T11:37:06.866Z,8.42
2023-03-06T11:42:26.672Z,8.24
2023-03-06T11:47:36.943Z,8.31
2023-03-06T11:52:43.395Z,8.26
2023-03-06T11:57:57.351Z,8.20
2023-03-06T12:03:27.485Z,8.33
2023-03-06T12:09:13.288Z,8.52
2023-03-06T12:14:37.735Z,8.75
2023-03-06T12:19:53.669Z,8.71
2023-03-06T12:25:33.912Z,8.61
2023-03-06T12:30:46.197Z,8.37
2023-03-06T12:35:55.696Z,8.16
2023-03-06T12:41:31.115Z,8.05
2023-03-06T12:46:39.871Z,8.01
2023-03-06T12:51:46.310Z,8.01
2023-03-06T12:56:51.241Z,8.04
2023-03-06T13:02:35.390Z,8.09
2023-03-06T13:08:03.819Z,8.23
2023-03-06T13:13:26.187Z,8.22
2023-03-06T13:18:35.402Z,8.22
2023-03-06T13:23:51.951Z,8.25
2023-03-06T13:28:58.408Z,8.16
2023-03-06T13:34:04.087Z,8.14
2023-03-06T13:39:09.526Z,8.08
2023-03-06T13:44:25.438Z,7.89
2023-03-06T13:49:29.676Z,7.89
2023-03-06T13:54:51.672Z,8.02
2023-03-06T14:00:09.516Z,8.11
2023-03-06T14:05:15.725Z,8.08
2023-03-06T14:10:26.346Z,8.03
2023-03-06T14:15:32.343Z,7.70
2023-03-06T14:20:50.692Z,7.15
2023-03-06T14:26:03.233Z,6.75
2023-03-06T14:31:07.352Z,6.53
2023-03-06T14:36:14.732Z,6.50
2023-03-06T14:41:29.393Z,6.29
2023-03-06T14:46:32.917Z,6.15
2023-03-06T14:51:50.632Z,6.15
2023-03-06T14:57:02.885Z,6.15
2023-03-06T15:02:09.986Z,6.23
2023-03-06T15:07:18.100Z,6.41
2023-03-06T15:12:21.692Z,6.58
2023-03-06T15:17:30.453Z,6.67
2023-03-06T15:22:38.752Z,6.72
2023-03-06T15:27:52.424Z,6.71
2023-03-06T15:33:09.375Z,6.76
2023-03-06T15:38:41.205Z,6.77
2023-03-06T15:43:44.482Z,6.77
2023-03-06T15:48:56.580Z,6.79
2023-03-06T15:54:11.246Z,6.81
2023-03-06T15:59:24.936Z,6.81
2023-03-06T16:04:28.842Z,6.77
2023-03-06T16:09:33.158Z,6.78
2023-03-06T16:14:36.417Z,6.76
2023-03-06T16:19:39.889Z,6.76
2023-03-06T16:24:43.540Z,6.76
2023-03-06T16:29:46.971Z,6.75
2023-03-06T16:34:50.456Z,6.72
2023-03-06T16:39:54.022Z,6.71
2023-03-06T16:45:00.111Z,6.70
2023-03-06T16:50:05.319Z,6.71
2023-03-06T16:55:09.048Z,6.71
2023-03-06T17:00:13.717Z,6.68
2023-03-06T17:05:19.812Z,6.70
2023-03-06T17:10:26.563Z,6.66
2023-03-06T17:15:29.854Z,6.62
2023-03-06T17:20:33.373Z,6.56
2023-03-06T17:25:38.665Z,6.45
2023-03-06T17:30:42.084Z,6.31
2023-03-06T17:35:45.509Z,6.17
2023-03-06T17:40:48.704Z,6.12
2023-03-06T17:45:51.848Z,6.06
2023-03-06T17:50:56.207Z,5.98
2023-03-06T17:55:59.763Z,5.93
2023-03-06T18:01:21.440Z,5.85
2023-03-06T18:06:27.748Z,5.78
2023-03-06T18:11:32.463Z,5.75
2023-03-06T18:16:35.857Z,5.69
2023-03-06T18:21:40.055Z,5.67
2023-03-06T18:26:43.958Z,5.65
2023-03-06T18:31:50.218Z,5.61
2023-03-06T18:36:53.575Z,5.62
2023-03-06T18:41:56.900Z,5.59
2023-03-06T18:47:00.098Z,5.54
2023-03-06T18:52:03.580Z,5.49
2023-03-06T18:57:07.501Z,5.49
2023-03-06T19:02:12.448Z,5.59
2023-03-06T19:07:15.917Z,5.55
2023-03-06T19:12:19.467Z,5.54
2023-03-06T19:17:24.946Z,5.45
2023-03-06T19:22:28.370Z,5.36
2023-03-06T19:27:32.809Z,5.38
2023-03-06T19:32:36.260Z,5.41
2023-03-06T19:37:39.863Z,5.33
2023-03-06T19:42:43.194Z,5.20
2023-03-06T19:47:47.058Z,5.20
2023-03-06T19:52:52.932Z,5.19
2023-03-06T19:57:56.211Z,5.15
2023-03-06T20:02:59.929Z,5.14
2023-03-06T20:08:03.990Z,5.09
2023-03-06T20:13:09.169Z,5.05
2023-03-06T20:18:12.993Z,5.06
2023-03-06T20:23:16.738Z,5.10
2023-03-06T20:28:19.969Z,5.12
2023-03-06T20:33:23.213Z,5.11
2023-03-06T20:38:26.601Z,5.08
2023-03-06T20:43:29.932Z,5.02
2023-03-06T20:48:33.257Z,5.00
2023-03-06T20:53:36.929Z,4.98
2023-03-06T20:58:40.104Z,4.95
2023-03-06T21:03:44.014Z,4.95
2023-03-06T21:08:47.932Z,4.93
2023-03-06T21:13:52.876Z,4.96
2023-03-06T21:18:57.566Z,4.93
2023-03-06T21:24:01.980Z,4.90
2023-03-06T21:29:05.748Z,4.85
2023-03-06T21:34:09.096Z,4.79
2023-03-06T21:39:18.584Z,4.74
2023-03-06T21:44:21.810Z,4.65
2023-03-06T21:49:26.285Z,4.62
2023-03-06T21:54:29.601Z,4.59
2023-03-06T21:59:32.890Z,4.60
2023-03-06T22:04:37.123Z,4.57
2023-03-06T22:09:40.481Z,4.52
2023-03-06T22:14:44.161Z,4.49
2023-03-06T22:19:49.059Z,4.42
2023-03-06T22:24:52.379Z,4.36
2023-03-06T22:29:55.773Z,4.29
2023-03-06T22:34:59.528Z,4.22
2023-03-06T22:40:03.210Z,4.20
2023-03-06T22:45:06.969Z,4.20
2023-03-06T22:50:11.222Z,4.19
2023-03-06T22:55:14.737Z,4.20
2023-03-06T23:00:18.690Z,4.16
2023-03-06T23:05:22.242Z,4.16
2023-03-06T23:10:26.170Z,4.15
2023-03-06T23:15:48.542Z,4.15
2023-03-06T23:21:15.366Z,4.15
2023-03-06T23:26:37.794Z,4.20
2023-03-06T23:31:41.162Z,4.23
2023-03-06T23:36:44.490Z,4.27
2023-03-06T23:41:47.927Z,4.31
2023-03-06T23:46:51.583Z,4.25
2023-03-06T23:51:55.200Z,4.21
2023-03-06T23:56:58.917Z,4.20
